createdAt,value
2022-08-25T00:01:10.187Z,0.90
2022-08-25T00:03:47.841Z,1.00
2022-08-25T00:06:34.722Z,0.95
2022-08-25T00:09:21.595Z,0.85
2022-08-25T00:12:03.281Z,0.90
2022-08-25T00:14:46.025Z,0.98
2022-08-25T00:17:26.750Z,1.02
2022-08-25T00:20:04.200Z,1.20
2022-08-25T00:22:45.034Z,1.10
2022-08-25T00:25:22.140Z,1.02
2022-08-25T00:28:08.513Z,1.10
2022-08-25T00:30:49.126Z,1.20
2022-08-25T00:33:26.844Z,1.13
2022-08-25T00:36:03.001Z,1.27
2022-08-25T00:38:43.858Z,1.13
2022-08-25T00:41:23.962Z,1.17
2022-08-25T00:44:01.886Z,1.13
2022-08-25T00:46:39.778Z,0.82
2022-08-25T00:49:25.350Z,1.02
2022-08-25T00:52:04.880Z,0.73
2022-08-25T00:54:51.197Z,1.00
2022-08-25T00:57:36.885Z,1.20
2022-08-25T01:00:22.682Z,1.10
2022-08-25T01:03:00.938Z,1.40
2022-08-25T01:05:36.608Z,1.10
2022-08-25T01:08:16.418Z,1.20
2022-08-25T01:10:57.467Z,1.30
2022-08-25T01:13:41.187Z,1.20
2022-08-25T01:16:27.560Z,0.90
2022-08-25T01:19:08.868Z,1.23
2022-08-25T01:21:52.581Z,1.25
2022-08-25T01:24:33.458Z,1.10
2022-08-25T01:27:07.392Z,1.10
2022-08-25T01:29:44.334Z,1.10
2022-08-25T01:32:18.958Z,1.08
2022-08-25T01:34:51.987Z,0.77
2022-08-25T01:37:29.461Z,1.30
2022-08-25T01:40:06.049Z,1.17
2022-08-25T01:42:50.191Z,0.97
2022-08-25T01:45:26.598Z,1.10
2022-08-25T01:48:03.309Z,1.10
2022-08-25T01:50:36.245Z,1.02
2022-08-25T01:53:16.996Z,1.10
2022-08-25T01:56:02.757Z,1.20
2022-08-25T01:58:36.813Z,1.20
2022-08-25T02:01:12.612Z,1.10
2022-08-25T02:03:48.274Z,1.10
2022-08-25T02:06:27.678Z,1.20
2022-08-25T02:09:08.904Z,0.90
2022-08-25T02:11:44.357Z,1.20
2022-08-25T02:14:18.955Z,1.30
2022-08-25T02:16:55.260Z,1.40
2022-08-25T02:19:29.097Z,1.20
2022-08-25T02:22:02.251Z,1.40
2022-08-25T02:24:37.391Z,1.35
2022-08-25T02:27:11.878Z,1.20
2022-08-25T02:29:45.285Z,0.90
2022-08-25T02:32:18.532Z,1.05
2022-08-25T02:34:53.522Z,1.50
2022-08-25T02:37:25.831Z,1.20
2022-08-25T02:39:59.807Z,1.40
2022-08-25T02:42:32.187Z,1.27
2022-08-25T02:45:06.548Z,1.23
2022-08-25T02:47:41.192Z,1.40
2022-08-25T02:50:14.592Z,1.73
2022-08-25T02:53:01.219Z,1.42
2022-08-25T02:55:35.820Z,1.25
2022-08-25T02:58:09.957Z,1.20
2022-08-25T03:00:41.593Z,1.07
2022-08-25T03:03:14.454Z,1.33
2022-08-25T03:05:47.566Z,1.20
2022-08-25T03:08:20.441Z,1.35
2022-08-25T03:10:53.964Z,1.17
2022-08-25T03:13:24.668Z,1.40
2022-08-25T03:15:57.978Z,1.77
2022-08-25T03:18:29.409Z,1.50
2022-08-25T03:21:01.908Z,1.20
2022-08-25T03:23:37.279Z,1.35
2022-08-25T03:26:28.240Z,1.50
2022-08-25T03:29:01.625Z,1.50
2022-08-25T03:31:33.108Z,1.30
2022-08-25T03:34:05.379Z,1.27
2022-08-25T03:36:37.926Z,1.23
2022-08-25T03:39:11.063Z,1.20
2022-08-25T03:41:45.422Z,1.27
2022-08-25T03:44:18.854Z,1.23
2022-08-25T07:00:48.182Z,1.50
2022-08-25T07:06:18.521Z,1.47
2022-08-25T07:09:39.166Z,1.60
2022-08-25T07:12:19.026Z,1.83
2022-08-25T07:15:03.441Z,1.50
2022-08-25T07:17:37.592Z,1.47
2022-08-25T07:20:13.579Z,1.87
2022-08-25T07:23:15.027Z,2.03
2022-08-25T07:25:54.390Z,1.83
2022-08-25T07:28:26.422Z,1.57
2022-08-25T07:31:00.860Z,1.73
2022-08-25T07:33:30.850Z,2.17
2022-08-25T07:35:58.586Z,1.70
2022-08-25T07:38:27.503Z,1.70
2022-08-25T07:41:04.353Z,1.90
2022-08-25T07:44:10.353Z,2.07
2022-08-25T07:46:54.725Z,1.50
2022-08-25T07:49:35.021Z,2.20
2022-08-25T07:52:06.799Z,1.80
2022-08-25T07:54:38.018Z,1.57
2022-08-25T07:57:09.991Z,1.65
2022-08-25T07:59:42.581Z,1.80
2022-08-25T08:02:45.215Z,1.75
2022-08-25T08:06:12.366Z,1.90
2022-08-25T08:10:37.131Z,1.92
2022-08-25T08:12:20.772Z,1.50
2022-08-25T08:14:52.139Z,2.00
2022-08-25T08:17:21.943Z,2.10
2022-08-25T08:20:28.870Z,2.10
2022-08-25T08:23:06.159Z,1.70
2022-08-25T08:26:07.166Z,2.03
2022-08-25T08:28:43.947Z,1.58
2022-08-25T08:31:13.412Z,2.15
2022-08-25T08:34:53.868Z,2.13
2022-08-25T08:38:31.799Z,1.80
2022-08-25T08:42:12.685Z,1.73
2022-08-25T08:44:59.157Z,1.70
2022-08-25T08:49:01.549Z,1.77
2022-08-25T08:51:53.008Z,1.50
2022-08-25T08:54:35.664Z,1.80
2022-08-25T08:57:13.511Z,1.55
2022-08-25T08:59:50.665Z,1.60
2022-08-25T09:02:39.346Z,2.00
2022-08-25T09:05:20.041Z,2.00
2022-08-25T09:08:05.088Z,1.90
2022-08-25T09:11:06.003Z,2.17
2022-08-25T09:14:07.263Z,2.00
2022-08-25T09:17:21.920Z,2.70
2022-08-25T09:21:11.608Z,2.00
2022-08-25T09:24:04.880Z,1.90
2022-08-25T09:28:10.444Z,2.63
2022-08-25T09:31:02.067Z,1.75
2022-08-25T09:34:46.617Z,1.73
2022-08-25T09:37:33.762Z,1.65
2022-08-25T09:40:02.765Z,2.10
2022-08-25T09:42:51.472Z,2.00
2022-08-25T09:45:45.145Z,2.00
2022-08-25T09:48:28.700Z,1.85
2022-08-25T09:51:03.597Z,1.75
2022-08-25T09:53:35.026Z,1.80
2022-08-25T09:56:07.621Z,1.63
2022-08-25T09:58:37.348Z,1.50
2022-08-25T10:01:16.751Z,1.80
2022-08-25T10:04:06.697Z,1.40
2022-08-25T10:06:49.205Z,1.23
2022-08-25T10:09:34.811Z,1.60
2022-08-25T10:12:17.802Z,1.70
2022-08-25T10:14:54.461Z,1.40
2022-08-25T10:17:34.069Z,1.40
2022-08-25T10:20:20.350Z,1.52
2022-08-25T10:23:08.747Z,1.58
2022-08-25T10:25:59.212Z,1.33
2022-08-25T10:28:41.124Z,1.50
2022-08-25T10:31:20.243Z,1.40
2022-08-25T10:34:06.610Z,1.60
2022-08-25T10:36:56.048Z,1.40
2022-08-25T10:39:40.881Z,1.70
2022-08-25T10:42:35.948Z,1.73
2022-08-25T10:45:36.335Z,1.48
2022-08-25T10:48:50.201Z,1.40
2022-08-25T10:51:51.012Z,1.50
2022-08-25T10:54:43.823Z,1.80
2022-08-25T10:57:23.842Z,1.65
2022-08-25T11:00:07.454Z,2.13
2022-08-25T11:03:04.075Z,1.60
2022-08-25T11:05:43.482Z,1.60
2022-08-25T11:08:19.291Z,1.73
2022-08-25T11:10:57.627Z,1.70
2022-08-25T11:13:44.140Z,1.30
2022-08-25T11:16:22.151Z,1.88
2022-08-25T11:19:05.623Z,1.58
2022-08-25T11:21:47.740Z,1.83
2022-08-25T11:24:36.346Z,1.70
2022-08-25T11:27:08.086Z,1.30
2022-08-25T11:29:46.792Z,1.60
2022-08-25T11:32:24.817Z,1.80
2022-08-25T11:34:55.099Z,1.90
2022-08-25T11:37:29.209Z,1.23
2022-08-25T11:40:33.064Z,1.50
2022-08-25T11:43:16.221Z,1.83
2022-08-25T11:46:03.868Z,1.67
2022-08-25T11:48:44.058Z,1.63
2022-08-25T11:51:31.098Z,1.55
2022-08-25T11:54:26.454Z,1.60
2022-08-25T11:57:02.426Z,1.45
2022-08-25T12:00:09.307Z,1.77
2022-08-25T12:02:42.654Z,1.80
2022-08-25T12:05:54.365Z,1.70
2022-08-25T12:08:57.642Z,1.67
2022-08-25T12:11:51.966Z,1.40
2022-08-25T12:14:43.160Z,1.95
2022-08-25T12:17:29.632Z,1.80
2022-08-25T12:20:01.098Z,1.42
2022-08-25T12:23:00.123Z,1.80
2022-08-25T12:25:51.763Z,1.70
2022-08-25T12:28:49.251Z,1.90
2022-08-25T12:31:40.641Z,1.90
2022-08-25T12:34:28.672Z,2.20
2022-08-25T12:37:01.464Z,2.00
2022-08-25T12:39:38.838Z,1.65
2022-08-25T12:42:26.221Z,1.73
2022-08-25T12:45:15.020Z,1.85
2022-08-25T12:47:47.532Z,1.25
2022-08-25T12:50:40.734Z,1.52
2022-08-25T12:53:21.009Z,1.33
2022-08-25T12:56:01.427Z,2.00
2022-08-25T12:58:56.537Z,1.63
2022-08-25T13:01:37.595Z,1.60
2022-08-25T13:05:02.918Z,1.60
2022-08-25T13:07:52.647Z,1.65
2022-08-25T13:10:35.309Z,1.90
2022-08-25T13:13:13.698Z,1.80
2022-08-25T13:15:47.111Z,1.85
2022-08-25T13:18:21.797Z,1.88
2022-08-25T13:20:54.867Z,1.63
2022-08-25T13:23:31.444Z,2.00
2022-08-25T13:26:00.233Z,1.67
2022-08-25T13:28:35.800Z,1.90
2022-08-25T13:31:10.217Z,1.65
2022-08-25T13:33:39.428Z,1.90
2022-08-25T13:36:26.028Z,1.85
2022-08-25T13:38:54.673Z,2.00
2022-08-25T13:41:28.946Z,1.75
2022-08-25T13:44:01.034Z,1.95
2022-08-25T13:46:32.022Z,1.88
2022-08-25T13:49:07.189Z,1.90
2022-08-25T13:51:41.591Z,1.92
2022-08-25T13:54:27.646Z,1.83
2022-08-25T13:57:05.359Z,1.60
2022-08-25T13:59:42.079Z,1.70
2022-08-25T14:02:15.170Z,1.38
2022-08-25T14:04:52.909Z,1.42
2022-08-25T14:07:34.545Z,1.45
2022-08-25T14:10:07.731Z,2.00
2022-08-25T14:12:42.197Z,1.67
2022-08-25T14:15:33.461Z,1.25
2022-08-25T14:18:08.982Z,1.58
2022-08-25T14:20:45.518Z,1.67
2022-08-25T14:23:19.591Z,1.90
2022-08-25T14:25:51.340Z,1.90
2022-08-25T14:28:23.557Z,1.75
2022-08-25T14:31:01.311Z,1.70
2022-08-25T14:33:32.733Z,1.70
2022-08-25T14:36:04.937Z,1.90
2022-08-25T14:38:35.351Z,1.80
2022-08-25T14:43:32.829Z,1.80
2022-08-25T14:46:19.506Z,2.10
2022-08-25T14:48:54.675Z,2.05
2022-08-25T14:51:25.898Z,1.88
2022-08-25T14:53:59.237Z,1.90
2022-08-25T14:56:29.268Z,1.60
2022-08-25T14:58:59.568Z,1.60
2022-08-25T15:01:30.934Z,1.50
2022-08-25T15:04:06.895Z,1.60
2022-08-25T15:06:38.127Z,1.67
2022-08-25T15:09:11.177Z,1.92
2022-08-25T15:11:43.599Z,2.00
2022-08-25T15:14:17.486Z,1.80
2022-08-25T15:16:51.425Z,2.00
2022-08-25T15:19:23.604Z,1.98
2022-08-25T15:21:54.178Z,1.95
2022-08-25T15:24:28.329Z,1.92
2022-08-25T15:26:59.509Z,1.90
2022-08-25T15:29:30.989Z,1.92
2022-08-25T15:32:03.440Z,1.70
2022-08-25T15:34:32.737Z,1.92
2022-08-25T15:37:09.643Z,1.92
2022-08-25T15:39:39.503Z,1.85
2022-08-25T15:42:12.173Z,1.77
2022-08-25T15:44:48.246Z,2.22
2022-08-25T15:47:34.814Z,1.92
2022-08-25T15:50:09.604Z,2.03
2022-08-25T15:53:10.376Z,1.95
2022-08-25T15:55:48.499Z,2.00
2022-08-25T16:01:27.846Z,2.10
2022-08-25T16:04:02.767Z,2.10
2022-08-25T16:06:35.282Z,2.00
2022-08-25T16:09:09.700Z,1.90
2022-08-25T16:11:39.285Z,2.20
2022-08-25T16:14:09.289Z,2.28
2022-08-25T16:16:40.230Z,2.20
2022-08-25T16:19:15.408Z,1.85
2022-08-25T16:21:47.150Z,2.10
2022-08-25T16:24:16.989Z,2.10
2022-08-25T16:26:48.589Z,2.17
2022-08-25T16:29:18.256Z,2.22
2022-08-25T16:31:53.331Z,2.17
2022-08-25T16:34:28.435Z,2.17
2022-08-25T16:36:58.781Z,2.20
2022-08-25T16:39:29.032Z,2.42
2022-08-25T16:41:59.346Z,2.30
2022-08-25T16:44:29.537Z,2.08
2022-08-25T16:47:00.294Z,1.98
2022-08-25T16:49:33.012Z,2.00
2022-08-25T16:52:23.391Z,2.28
2022-08-25T16:55:10.818Z,1.92
2022-08-25T16:57:43.071Z,2.15
2022-08-25T17:00:19.108Z,2.15
2022-08-25T17:02:54.339Z,1.98
2022-08-25T17:05:24.501Z,2.17
2022-08-25T17:08:14.482Z,2.10
2022-08-25T17:10:45.121Z,2.00
2022-08-25T17:13:15.847Z,2.17
2022-08-25T17:15:48.674Z,1.95
2022-08-25T17:18:23.147Z,2.03
2022-08-25T17:21:04.431Z,2.40
2022-08-25T17:23:35.882Z,2.20
2022-08-25T17:26:06.717Z,2.10
2022-08-25T17:28:37.430Z,2.10
2022-08-25T17:31:08.817Z,2.00
2022-08-25T17:33:40.869Z,2.22
2022-08-25T17:36:17.181Z,2.33
2022-08-25T17:38:47.533Z,2.20
2022-08-25T17:41:18.191Z,2.20
2022-08-25T17:43:48.216Z,2.03
2022-08-25T17:46:18.301Z,2.08
2022-08-25T17:48:48.639Z,1.83
2022-08-25T17:51:19.333Z,2.25
2022-08-25T17:53:50.234Z,2.08
2022-08-25T17:56:22.921Z,2.25
2022-08-25T17:58:55.279Z,2.28
2022-08-25T18:01:29.581Z,2.22
2022-08-25T18:04:01.378Z,2.13
2022-08-25T18:06:32.428Z,2.30
2022-08-25T18:09:04.280Z,2.40
2022-08-25T18:11:36.079Z,2.38
2022-08-25T18:14:11.914Z,2.30
2022-08-25T18:16:44.030Z,2.17
2022-08-25T18:19:15.994Z,2.15
2022-08-25T18:21:52.554Z,2.08
2022-08-25T18:24:23.665Z,2.35
2022-08-25T18:26:53.950Z,2.30
2022-08-25T18:29:23.153Z,2.10
2022-08-25T18:31:53.649Z,2.22
2022-08-25T18:34:25.534Z,2.22
2022-08-25T18:36:55.763Z,2.45
2022-08-25T18:39:41.934Z,2.47
2022-08-25T18:42:13.402Z,2.25
2022-08-25T18:44:46.472Z,2.20
2022-08-25T18:47:15.788Z,2.17
2022-08-25T18:49:44.563Z,2.17
2022-08-25T18:52:16.657Z,2.25
2022-08-25T18:54:47.073Z,2.15
2022-08-25T18:57:17.612Z,2.30
2022-08-25T18:59:46.478Z,2.08
2022-08-25T19:02:15.294Z,2.47
2022-08-25T19:04:45.588Z,2.00
2022-08-25T19:07:15.709Z,2.30
2022-08-25T19:09:44.565Z,2.30
2022-08-25T19:12:22.179Z,2.40
2022-08-25T19:14:51.909Z,1.90
2022-08-25T19:17:21.048Z,2.33
2022-08-25T19:19:53.884Z,1.83
2022-08-25T19:22:48.287Z,2.30
2022-08-25T19:25:41.669Z,2.45
2022-08-25T19:28:25.618Z,2.20
2022-08-25T19:31:04.768Z,2.20
2022-08-25T19:33:45.341Z,2.60
2022-08-25T19:36:45.522Z,2.25
2022-08-25T19:39:31.320Z,1.95
2022-08-25T19:42:37.352Z,2.25
2022-08-25T19:45:34.485Z,2.20
2022-08-25T19:48:15.559Z,1.73
2022-08-25T19:50:56.196Z,2.20
2022-08-25T19:53:45.380Z,2.08
2022-08-25T19:56:36.582Z,2.30
2022-08-25T19:59:12.853Z,2.05
2022-08-25T20:01:51.963Z,2.25
2022-08-25T20:04:31.901Z,1.80
2022-08-25T20:07:18.658Z,2.20
2022-08-25T20:10:00.554Z,1.98
2022-08-25T20:12:47.608Z,1.95
2022-08-25T20:15:27.974Z,2.10
2022-08-25T20:17:59.932Z,1.95
2022-08-25T20:20:35.589Z,2.13
2022-08-25T20:23:24.779Z,2.30
2022-08-25T20:25:56.642Z,2.30
2022-08-25T20:28:30.419Z,2.70
2022-08-25T20:31:06.271Z,1.92
2022-08-25T20:33:40.455Z,2.17
2022-08-25T20:36:20.333Z,1.85
2022-08-25T20:38:54.594Z,1.73
2022-08-25T20:41:48.183Z,1.92
2022-08-25T20:44:23.757Z,2.10
2022-08-25T20:47:06.361Z,1.95
2022-08-25T20:49:48.375Z,1.90
2022-08-25T20:52:32.186Z,2.08
2022-08-25T20:55:08.897Z,2.00
2022-08-25T20:57:43.430Z,2.00
2022-08-25T21:00:18.402Z,2.20
2022-08-25T21:02:56.971Z,2.00
2022-08-25T21:05:26.981Z,1.92
2022-08-25T21:07:58.732Z,1.85
2022-08-25T21:10:28.817Z,1.90
2022-08-25T21:12:58.477Z,2.35
2022-08-25T21:15:30.478Z,2.35
2022-08-25T21:18:02.309Z,2.38
2022-08-25T21:20:32.228Z,2.25
2022-08-25T21:23:04.383Z,2.00
2022-08-25T21:25:42.575Z,2.25
2022-08-25T21:28:15.133Z,2.50
2022-08-25T21:30:47.631Z,2.50
2022-08-25T21:33:18.371Z,2.63
2022-08-25T21:35:52.165Z,2.75
2022-08-25T21:38:23.550Z,2.63
2022-08-25T21:40:53.884Z,2.67
2022-08-25T21:43:25.418Z,2.67
2022-08-25T21:45:59.708Z,2.60
2022-08-25T21:48:31.011Z,2.42
2022-08-25T21:51:16.910Z,2.50
2022-08-25T21:53:51.807Z,2.70
2022-08-25T21:56:26.247Z,2.85
2022-08-25T21:58:56.427Z,2.40
2022-08-25T22:01:28.605Z,2.75
2022-08-25T22:03:59.245Z,2.63
2022-08-25T22:06:32.921Z,2.40
2022-08-25T22:09:03.276Z,2.50
2022-08-25T22:11:33.978Z,2.15
2022-08-25T22:14:07.132Z,2.40
2022-08-25T22:16:39.523Z,2.78
2022-08-25T22:19:11.439Z,2.60
2022-08-25T22:21:41.905Z,2.67
2022-08-25T22:24:11.069Z,2.50
2022-08-25T22:26:41.898Z,2.20
2022-08-25T22:29:25.474Z,2.40
2022-08-25T22:32:00.028Z,2.40
2022-08-25T22:34:34.431Z,2.30
2022-08-25T22:37:05.501Z,2.80
2022-08-25T22:39:35.607Z,2.75
2022-08-25T22:42:08.289Z,2.85
2022-08-25T22:44:39.906Z,2.60
2022-08-25T22:47:11.847Z,2.63
2022-08-25T22:49:41.363Z,2.70
2022-08-25T22:52:12.814Z,3.08
2022-08-25T22:54:43.113Z,2.92
2022-08-25T22:57:12.535Z,3.00
2022-08-25T22:59:41.420Z,3.45
2022-08-25T23:02:11.865Z,4.20
2022-08-25T23:04:41.362Z,3.83
2022-08-25T23:07:12.965Z,3.75
2022-08-25T23:09:42.102Z,4.85
2022-08-25T23:12:13.367Z,4.43
2022-08-25T23:14:44.233Z,4.65
2022-08-25T23:17:14.929Z,4.70
2022-08-25T23:19:43.851Z,4.07
2022-08-25T23:22:12.567Z,4.60
2022-08-25T23:24:44.519Z,4.60
2022-08-25T23:27:17.019Z,5.10
2022-08-25T23:29:48.849Z,4.43
2022-08-25T23:32:20.031Z,4.55
2022-08-25T23:34:49.113Z,4.03
2022-08-25T23:37:19.030Z,3.78
2022-08-25T23:39:49.378Z,4.05
2022-08-25T23:42:20.629Z,3.88
2022-08-25T23:44:51.395Z,4.13
2022-08-25T23:47:21.792Z,3.17
2022-08-25T23:49:51.716Z,3.17
2022-08-25T23:52:20.613Z,3.15
2022-08-25T23:54:49.397Z,3.03
2022-08-25T23:57:18.773Z,2.92
2022-08-25T23:59:47.635Z,3.00
